createdAt,value
2023-05-19T00:00:16.005Z,98.00
2023-05-19T00:01:16.279Z,98.21
2023-05-19T00:02:16.617Z,99.04
2023-05-19T00:03:16.587Z,99.86
2023-05-19T00:04:16.248Z,99.99
2023-05-19T00:05:17.558Z,99.99
2023-05-19T00:06:16.170Z,99.99
2023-05-19T00:07:16.388Z,99.99
2023-05-19T00:08:15.998Z,99.99
2023-05-19T00:09:16.035Z,99.99
2023-05-19T00:10:15.878Z,99.99
2023-05-19T00:11:16.281Z,99.99
2023-05-19T00:12:15.955Z,99.99
2023-05-19T00:16:00.558Z,99.99
2023-05-19T00:17:00.150Z,99.99
2023-05-19T00:17:59.881Z,99.99
2023-05-19T00:18:59.821Z,99.99
2023-05-19T00:19:59.843Z,99.99
2023-05-19T00:21:00.102Z,99.99
2023-05-19T00:21:59.931Z,99.99
2023-05-19T00:23:00.169Z,99.99
2023-05-19T00:23:59.868Z,99.99
2023-05-19T00:25:00.048Z,99.99
2023-05-19T00:26:00.046Z,99.99
2023-05-19T00:26:59.905Z,99.99
2023-05-19T00:27:59.731Z,99.99
2023-05-19T00:28:59.685Z,99.99
2023-05-19T00:29:59.669Z,99.99
2023-05-19T00:30:59.826Z,99.99
2023-05-19T00:31:59.743Z,99.99
2023-05-19T00:32:59.701Z,99.99
2023-05-19T00:33:59.579Z,99.99
2023-05-19T00:34:59.699Z,99.99
2023-05-19T00:35:59.374Z,99.99
2023-05-19T00:36:59.380Z,99.99
2023-05-19T00:37:59.537Z,99.99
2023-05-19T00:38:59.612Z,99.99
2023-05-19T00:39:59.511Z,99.99
2023-05-19T00:40:59.285Z,99.99
2023-05-19T00:41:59.660Z,99.99
2023-05-19T00:42:59.377Z,99.99
2023-05-19T00:43:59.461Z,99.99
2023-05-19T01:14:32.479Z,99.99
2023-05-19T01:15:32.194Z,99.99
2023-05-19T01:16:32.026Z,99.99
2023-05-19T01:17:31.875Z,99.99
2023-05-19T01:18:32.086Z,99.99
2023-05-19T01:19:46.305Z,99.99
2023-05-19T01:20:31.970Z,99.99
2023-05-19T01:21:31.976Z,99.99
2023-05-19T01:22:32.026Z,99.99
2023-05-19T01:23:31.994Z,99.99
2023-05-19T01:24:31.888Z,99.99
2023-05-19T01:25:31.895Z,99.99
2023-05-19T01:26:32.039Z,99.99
2023-05-19T01:27:31.780Z,99.99
2023-05-19T01:28:31.766Z,99.99
2023-05-19T01:29:31.831Z,99.99
2023-05-19T01:30:32.154Z,99.99
2023-05-19T01:31:31.807Z,99.99
2023-05-19T01:32:31.866Z,99.99
2023-05-19T01:33:31.981Z,99.99
2023-05-19T01:37:52.039Z,99.99
2023-05-19T01:38:25.175Z,99.99
2023-05-19T01:39:24.945Z,99.99
2023-05-19T01:40:25.010Z,99.99
2023-05-19T01:41:24.847Z,99.99
2023-05-19T01:42:24.982Z,99.99
2023-05-19T01:43:25.329Z,99.99
2023-05-19T01:44:24.869Z,99.99
2023-05-19T01:45:25.035Z,99.99
2023-05-19T01:46:24.814Z,99.99
2023-05-19T01:47:24.662Z,99.99
2023-05-19T01:48:24.814Z,99.99
2023-05-19T01:49:25.009Z,99.99
2023-05-19T01:50:24.783Z,99.99
2023-05-19T01:51:25.219Z,99.99
2023-05-19T01:52:24.940Z,99.99
2023-05-19T01:53:24.727Z,99.99
2023-05-19T01:54:24.643Z,99.99
2023-05-19T01:55:24.578Z,99.99
2023-05-19T01:56:24.800Z,99.99
2023-05-19T01:57:25.034Z,99.99
2023-05-19T01:58:24.820Z,99.99
2023-05-19T01:59:24.708Z,99.99
2023-05-19T02:00:24.613Z,99.99
2023-05-19T02:01:24.901Z,99.99
2023-05-19T02:02:24.757Z,99.99
2023-05-19T02:03:24.665Z,99.99
2023-05-19T02:04:25.005Z,99.99
2023-05-19T02:05:24.788Z,99.99
2023-05-19T02:06:24.482Z,99.99
2023-05-19T02:07:24.293Z,99.99
2023-05-19T02:08:24.261Z,99.99
2023-05-19T02:09:24.332Z,99.99
2023-05-19T02:10:24.355Z,99.99
2023-05-19T02:11:24.291Z,99.99
2023-05-19T02:12:24.267Z,99.99
2023-05-19T02:13:24.299Z,99.99
2023-05-19T02:14:24.216Z,99.99
2023-05-19T02:15:24.290Z,99.99
2023-05-19T02:16:24.472Z,99.99
2023-05-19T02:17:24.250Z,99.99
2023-05-19T02:18:24.230Z,99.99
2023-05-19T02:19:24.326Z,99.99
2023-05-19T02:20:24.213Z,99.99
2023-05-19T02:21:24.155Z,99.99
2023-05-19T02:22:24.263Z,99.99
2023-05-19T02:23:24.197Z,99.99
2023-05-19T02:24:24.160Z,99.99
2023-05-19T02:25:24.392Z,99.99
2023-05-19T02:29:08.124Z,99.99
2023-05-19T02:30:07.987Z,99.99
2023-05-19T02:31:07.983Z,99.99
2023-05-19T02:32:07.930Z,99.99
2023-05-19T02:33:08.008Z,99.99
2023-05-19T02:34:07.829Z,99.99
2023-05-19T02:35:08.248Z,99.99
2023-05-19T02:36:07.840Z,99.99
2023-05-19T02:37:07.885Z,99.99
2023-05-19T02:38:07.775Z,99.99
2023-05-19T02:39:07.807Z,99.99
2023-05-19T02:40:07.815Z,99.99
2023-05-19T02:41:07.827Z,99.99
2023-05-19T02:42:07.766Z,99.99
2023-05-19T02:43:07.757Z,99.99
2023-05-19T02:44:07.786Z,99.99
2023-05-19T02:45:08.033Z,99.99
2023-05-19T02:46:07.758Z,99.99
2023-05-19T02:47:07.832Z,99.99
2023-05-19T02:48:07.766Z,99.99
2023-05-19T02:49:07.723Z,99.99
2023-05-19T02:50:07.854Z,99.99
2023-05-19T02:51:07.657Z,99.99
2023-05-19T02:52:07.805Z,99.99
2023-05-19T02:53:07.783Z,99.99
2023-05-19T02:54:07.628Z,99.99
2023-05-19T02:55:07.646Z,99.99
2023-05-19T02:56:07.702Z,99.99
2023-05-19T02:57:07.626Z,99.99
2023-05-19T02:58:07.630Z,99.99
2023-05-19T02:59:07.732Z,99.99
2023-05-19T03:00:07.562Z,99.99
2023-05-19T03:01:07.534Z,99.99
2023-05-19T03:02:07.659Z,99.99
2023-05-19T03:03:07.597Z,99.99
2023-05-19T03:04:07.681Z,99.99
2023-05-19T03:05:07.498Z,99.99
2023-05-19T03:06:07.493Z,99.99
2023-05-19T03:07:07.545Z,99.99
2023-05-19T03:08:07.505Z,99.99
2023-05-19T03:09:07.507Z,99.99
2023-05-19T03:10:07.440Z,99.99
2023-05-19T03:22:56.125Z,99.99
2023-05-19T03:23:29.554Z,99.99
2023-05-19T03:24:29.123Z,99.99
2023-05-19T03:25:29.190Z,99.99
2023-05-19T03:41:44.612Z,99.99
2023-05-19T03:42:44.202Z,99.99
2023-05-19T03:43:44.168Z,99.99
2023-05-19T03:44:44.092Z,99.99
2023-05-19T03:45:44.116Z,99.99
2023-05-19T03:46:44.105Z,99.99
2023-05-19T03:47:44.085Z,99.99
2023-05-19T03:48:44.043Z,99.99
2023-05-19T03:49:44.042Z,99.99
2023-05-19T03:50:44.001Z,99.99
2023-05-19T03:51:44.225Z,99.99
2023-05-19T03:52:44.036Z,99.99
2023-05-19T03:53:44.149Z,99.99
2023-05-19T03:54:44.230Z,99.99
2023-05-19T03:55:43.938Z,99.99
2023-05-19T03:56:44.088Z,99.99
2023-05-19T03:57:43.913Z,99.99
2023-05-19T03:58:43.885Z,99.99
2023-05-19T03:59:43.893Z,99.99
2023-05-19T04:00:44.128Z,99.99
2023-05-19T04:01:43.899Z,99.99
2023-05-19T04:02:44.129Z,99.99
2023-05-19T04:03:43.960Z,99.99
2023-05-19T04:04:43.963Z,99.99
2023-05-19T04:05:43.837Z,99.99
2023-05-19T04:06:43.822Z,99.99
2023-05-19T04:07:43.801Z,99.99
2023-05-19T04:08:43.799Z,99.99
2023-05-19T04:09:43.787Z,99.99
2023-05-19T04:10:43.816Z,99.99
2023-05-19T04:11:43.763Z,99.99
2023-05-19T04:12:43.838Z,99.99
2023-05-19T04:13:45.074Z,99.99
2023-05-19T04:14:43.800Z,99.99
2023-05-19T04:15:43.857Z,99.99
2023-05-19T04:16:43.673Z,99.99
2023-05-19T04:17:43.672Z,99.99
2023-05-19T04:18:43.729Z,99.99
2023-05-19T04:19:43.753Z,99.99
2023-05-19T04:20:43.673Z,99.99
2023-05-19T04:21:43.637Z,99.99
2023-05-19T04:22:43.698Z,99.99
2023-05-19T04:23:43.629Z,99.99
2023-05-19T04:24:43.732Z,99.99
2023-05-19T04:25:43.628Z,99.99
2023-05-19T04:26:43.618Z,99.99
2023-05-19T04:27:43.591Z,99.99
2023-05-19T04:28:43.552Z,99.99
2023-05-19T04:29:43.572Z,99.99
2023-05-19T04:30:43.545Z,99.99
2023-05-19T04:31:43.645Z,99.99
2023-05-19T04:32:53.279Z,99.99
2023-05-19T04:33:43.460Z,99.99
2023-05-19T04:34:44.202Z,99.99
2023-05-19T04:35:43.434Z,99.99
2023-05-19T04:36:43.436Z,99.99
2023-05-19T04:37:43.457Z,99.99
2023-05-19T04:38:43.411Z,99.99
2023-05-19T04:39:43.417Z,99.99
2023-05-19T04:40:43.395Z,99.99
2023-05-19T04:41:43.375Z,99.99
2023-05-19T04:42:43.378Z,99.99
2023-05-19T04:43:43.349Z,99.99
2023-05-19T04:44:43.365Z,99.99
2023-05-19T04:45:43.336Z,99.99
2023-05-19T04:46:43.377Z,99.99
2023-05-19T04:47:43.364Z,99.99
2023-05-19T04:48:43.314Z,99.99
2023-05-19T04:49:43.319Z,99.99
2023-05-19T04:50:43.289Z,99.99
2023-05-19T04:51:43.274Z,99.99
2023-05-19T04:52:43.283Z,99.99
2023-05-19T04:53:43.248Z,99.99
2023-05-19T04:54:43.238Z,99.99
2023-05-19T04:55:43.343Z,99.99
2023-05-19T04:56:43.240Z,99.99
2023-05-19T04:57:43.232Z,99.99
2023-05-19T04:58:43.208Z,99.99
2023-05-19T04:59:43.192Z,99.99
2023-05-19T05:00:43.177Z,99.99
2023-05-19T05:01:44.166Z,99.99
2023-05-19T05:02:43.272Z,99.99
2023-05-19T05:03:43.210Z,99.99
2023-05-19T05:04:43.153Z,99.99
2023-05-19T05:05:43.141Z,99.99
2023-05-19T05:06:43.124Z,99.99
2023-05-19T05:07:43.097Z,99.99
2023-05-19T05:08:43.066Z,99.99
2023-05-19T05:09:43.088Z,99.99
2023-05-19T05:10:43.068Z,99.99
2023-05-19T05:11:43.056Z,99.99
2023-05-19T05:12:43.032Z,99.99
2023-05-19T05:13:43.041Z,99.99
2023-05-19T05:14:43.066Z,99.99
2023-05-19T05:15:43.027Z,99.99
2023-05-19T05:16:43.090Z,99.99
2023-05-19T05:17:43.013Z,99.99
2023-05-19T05:18:44.927Z,99.84
2023-05-19T05:19:42.954Z,99.63
2023-05-19T05:20:42.954Z,99.32
2023-05-19T05:21:42.955Z,99.22
2023-05-19T05:22:42.982Z,99.01
2023-05-19T05:23:42.915Z,98.91
2023-05-19T05:24:42.911Z,98.80
2023-05-19T05:25:42.895Z,98.70
2023-05-19T05:26:43.016Z,98.66
2023-05-19T05:27:42.873Z,98.35
2023-05-19T05:28:42.865Z,98.03
2023-05-19T05:29:42.848Z,97.94
2023-05-19T05:30:42.849Z,96.75
2023-05-19T05:31:42.828Z,96.24
2023-05-19T05:32:42.963Z,95.93
2023-05-19T05:33:42.894Z,95.00
2023-05-19T05:34:42.817Z,94.34
2023-05-19T05:35:42.789Z,93.93
2023-05-19T05:36:42.798Z,93.11
2023-05-19T05:37:42.752Z,92.03
2023-05-19T05:38:42.801Z,91.72
2023-05-19T05:39:42.744Z,91.52
2023-05-19T05:40:42.768Z,90.03
2023-05-19T05:41:42.728Z,89.42
2023-05-19T05:42:42.717Z,89.52
2023-05-19T05:43:42.715Z,89.48
2023-05-19T05:44:42.711Z,88.66
2023-05-19T05:45:42.731Z,88.14
2023-05-19T05:46:42.707Z,87.69
2023-05-19T05:47:42.699Z,87.69
2023-05-19T05:48:42.683Z,87.69
2023-05-19T05:49:42.658Z,87.49
2023-05-19T05:50:42.653Z,87.04
2023-05-19T05:51:46.399Z,87.04
2023-05-19T05:52:43.629Z,86.52
2023-05-19T05:53:42.580Z,86.72
2023-05-19T05:54:42.614Z,87.04
2023-05-19T05:55:42.638Z,86.89
2023-05-19T05:56:42.588Z,86.89
2023-05-19T05:57:42.582Z,86.58
2023-05-19T05:58:42.564Z,85.62
2023-05-19T05:59:42.530Z,85.41
2023-05-19T06:00:42.534Z,85.11
2023-05-19T06:01:42.547Z,85.11
2023-05-19T06:02:42.644Z,85.41
2023-05-19T06:03:42.530Z,85.58
2023-05-19T06:04:42.484Z,84.66
2023-05-19T06:05:42.506Z,84.04
2023-05-19T06:06:42.474Z,84.04
2023-05-19T06:07:42.448Z,83.90
2023-05-19T06:08:42.472Z,83.90
2023-05-19T06:09:42.435Z,83.69
2023-05-19T06:10:43.219Z,83.59
2023-05-19T06:11:42.395Z,83.14
2023-05-19T06:12:42.428Z,83.34
2023-05-19T06:13:42.386Z,83.14
2023-05-19T06:14:42.417Z,83.14
2023-05-19T06:15:42.400Z,83.51
2023-05-19T06:16:42.351Z,83.41
2023-05-19T06:17:42.358Z,82.49
2023-05-19T06:18:42.379Z,82.65
2023-05-19T06:19:42.306Z,82.65
2023-05-19T06:20:42.322Z,82.35
2023-05-19T06:21:42.301Z,81.90
2023-05-19T06:22:42.297Z,82.31
2023-05-19T06:23:42.273Z,80.77
2023-05-19T06:24:42.259Z,79.64
2023-05-19T06:25:42.254Z,79.82
2023-05-19T06:26:42.271Z,80.33
2023-05-19T06:27:42.248Z,79.82
2023-05-19T06:28:42.242Z,78.69
2023-05-19T06:29:42.219Z,78.96
2023-05-19T06:30:42.205Z,79.16
2023-05-19T06:31:42.256Z,77.53
2023-05-19T06:32:42.239Z,76.57
2023-05-19T06:33:42.168Z,78.20
2023-05-19T06:34:42.169Z,76.67
2023-05-19T06:35:42.145Z,76.23
2023-05-19T06:36:42.135Z,75.62
2023-05-19T06:37:42.133Z,76.12
2023-05-19T06:38:42.125Z,75.78
2023-05-19T06:39:42.090Z,75.27
2023-05-19T06:40:42.091Z,74.15
2023-05-19T06:41:42.069Z,74.35
2023-05-19T06:42:42.098Z,73.71
2023-05-19T06:43:42.074Z,74.01
2023-05-19T06:44:42.046Z,74.63
2023-05-19T06:45:42.052Z,75.92
2023-05-19T06:46:42.121Z,73.57
2023-05-19T06:47:42.057Z,73.47
2023-05-19T06:48:42.053Z,72.55
2023-05-19T06:49:41.986Z,72.34
2023-05-19T06:50:41.990Z,72.34
2023-05-19T06:51:41.968Z,71.60
2023-05-19T06:52:41.964Z,71.19
2023-05-19T06:53:41.946Z,71.70
2023-05-19T06:54:41.946Z,71.70
2023-05-19T06:55:54.408Z,71.29
2023-05-19T06:56:42.916Z,71.15
2023-05-19T06:57:41.908Z,71.26
2023-05-19T06:58:41.917Z,70.75
2023-05-19T06:59:41.933Z,71.02
2023-05-19T07:00:41.894Z,70.72
2023-05-19T07:01:41.885Z,70.68
2023-05-19T07:02:42.008Z,69.97
2023-05-19T07:03:41.918Z,70.07
2023-05-19T07:04:41.836Z,69.97
2023-05-19T07:05:41.823Z,70.28
2023-05-19T07:06:41.832Z,70.14
2023-05-19T07:07:41.813Z,71.47
2023-05-19T07:08:41.820Z,69.53
2023-05-19T07:09:41.776Z,70.86
2023-05-19T07:10:41.763Z,69.93
2023-05-19T07:11:41.755Z,70.51
2023-05-19T07:12:41.769Z,70.04
2023-05-19T07:13:41.717Z,70.21
2023-05-19T07:14:41.728Z,69.73
2023-05-19T07:15:41.696Z,70.75
2023-05-19T07:16:41.744Z,68.21
2023-05-19T07:17:41.766Z,69.32
2023-05-19T07:18:41.760Z,71.16
2023-05-19T07:19:41.675Z,70.31
2023-05-19T07:20:41.666Z,69.90
2023-05-19T07:21:41.637Z,69.57
2023-05-19T07:22:41.634Z,67.13
2023-05-19T07:23:41.623Z,68.65
2023-05-19T07:24:41.629Z,67.94
2023-05-19T07:25:41.609Z,68.01
2023-05-19T07:26:41.586Z,67.71
2023-05-19T07:27:41.586Z,66.99
2023-05-19T07:28:41.878Z,68.01
2023-05-19T07:29:41.549Z,66.28
2023-05-19T07:30:41.620Z,66.49
2023-05-19T07:31:41.598Z,67.57
2023-05-19T07:32:41.633Z,66.46
2023-05-19T07:33:41.506Z,66.76
2023-05-19T07:34:41.565Z,65.13
2023-05-19T07:35:41.502Z,64.42
2023-05-19T07:36:41.489Z,66.25
2023-05-19T07:37:41.463Z,67.13
2023-05-19T07:38:41.506Z,65.58
2023-05-19T07:39:41.444Z,62.43
2023-05-19T07:40:41.436Z,63.45
2023-05-19T07:41:41.433Z,64.09
2023-05-19T07:42:41.415Z,65.48
2023-05-19T07:43:41.389Z,65.37
2023-05-19T07:44:41.380Z,65.07
2023-05-19T07:45:41.376Z,63.92
2023-05-19T07:46:41.440Z,62.81
2023-05-19T07:47:41.386Z,64.23
2023-05-19T07:48:41.353Z,63.18
2023-05-19T07:49:41.329Z,63.08
2023-05-19T07:50:41.315Z,62.17
2023-05-19T07:51:41.289Z,61.76
2023-05-19T07:52:41.303Z,62.95
2023-05-19T07:53:41.297Z,61.63
2023-05-19T07:54:41.271Z,60.79
2023-05-19T07:55:41.283Z,60.69
2023-05-19T07:56:41.248Z,61.10
2023-05-19T07:57:41.243Z,63.02
2023-05-19T07:58:41.227Z,59.55
2023-05-19T07:59:41.260Z,59.55
2023-05-19T08:00:41.212Z,60.08
2023-05-19T08:01:41.296Z,61.78
2023-05-19T08:02:41.236Z,61.07
2023-05-19T08:03:41.240Z,59.34
2023-05-19T08:04:41.189Z,58.92
2023-05-19T08:05:41.162Z,60.94
2023-05-19T08:06:41.148Z,59.83
2023-05-19T08:07:41.150Z,59.83
2023-05-19T08:08:41.110Z,61.35
2023-05-19T08:09:41.122Z,61.01
2023-05-19T08:10:41.092Z,58.89
2023-05-19T08:11:41.114Z,59.90
2023-05-19T08:12:41.105Z,57.78
2023-05-19T08:13:41.072Z,57.87
2023-05-19T08:14:41.081Z,60.41
2023-05-19T08:15:41.142Z,61.21
2023-05-19T08:16:41.047Z,58.96
2023-05-19T08:17:41.054Z,57.34
2023-05-19T08:18:41.051Z,58.45
2023-05-19T08:19:41.023Z,57.54
2023-05-19T08:20:41.007Z,57.54
2023-05-19T08:21:41.004Z,58.02
2023-05-19T08:22:40.972Z,58.93
2023-05-19T08:23:40.979Z,57.92
2023-05-19T08:24:40.942Z,58.70
2023-05-19T08:25:40.954Z,59.41
2023-05-19T08:26:40.911Z,57.79
2023-05-19T08:27:40.917Z,58.20
2023-05-19T08:28:40.878Z,57.89
2023-05-19T08:29:40.900Z,55.94
2023-05-19T08:30:40.870Z,55.34
2023-05-19T08:31:41.006Z,55.74
2023-05-19T08:32:40.947Z,55.44
2023-05-19T08:33:40.856Z,56.35
2023-05-19T08:34:40.835Z,56.65
2023-05-19T08:35:40.836Z,57.87
2023-05-19T08:36:40.823Z,56.35
2023-05-19T08:37:40.818Z,56.15
2023-05-19T08:38:41.161Z,57.06
2023-05-19T08:39:40.805Z,59.18
2023-05-19T08:40:40.769Z,57.26
2023-05-19T08:41:40.778Z,56.05
2023-05-19T08:42:40.754Z,56.45
2023-05-19T08:43:40.751Z,56.78
2023-05-19T08:44:40.720Z,57.09
2023-05-19T08:45:40.724Z,58.20
2023-05-19T08:46:40.769Z,57.16
2023-05-19T08:47:40.732Z,58.17
2023-05-19T08:48:40.693Z,58.47
2023-05-19T08:49:40.684Z,57.64
2023-05-19T08:50:40.667Z,57.64
2023-05-19T08:51:40.658Z,56.81
2023-05-19T08:52:40.662Z,57.51
2023-05-19T08:53:40.646Z,55.59
2023-05-19T08:54:40.602Z,56.30
2023-05-19T08:55:40.651Z,56.30
2023-05-19T08:56:40.609Z,56.50
2023-05-19T08:57:40.594Z,57.91
2023-05-19T08:58:40.603Z,57.08
2023-05-19T08:59:40.590Z,56.98
2023-05-19T09:00:40.666Z,57.78
2023-05-19T09:01:40.544Z,56.88
2023-05-19T09:02:50.490Z,56.48
2023-05-19T09:03:42.636Z,57.08
2023-05-19T09:04:40.548Z,56.77
2023-05-19T09:05:40.552Z,55.87
2023-05-19T09:06:40.471Z,56.57
2023-05-19T09:07:40.489Z,55.66
2023-05-19T09:08:40.452Z,55.97
2023-05-19T09:09:40.442Z,55.99
2023-05-19T09:10:40.443Z,58.69
2023-05-19T09:11:40.440Z,57.05
2023-05-19T09:12:40.422Z,55.64
2023-05-19T09:13:40.433Z,55.04
2023-05-19T09:14:40.407Z,56.55
2023-05-19T09:15:40.428Z,55.24
2023-05-19T09:16:40.393Z,55.24
2023-05-19T09:17:40.454Z,56.35
2023-05-19T09:18:40.381Z,55.34
2023-05-19T09:19:40.344Z,55.04
2023-05-19T09:20:40.331Z,56.15
2023-05-19T09:21:40.328Z,55.04
2023-05-19T09:22:40.334Z,55.62
2023-05-19T09:23:40.315Z,53.60
2023-05-19T09:24:40.272Z,54.08
2023-05-19T09:25:40.292Z,53.38
2023-05-19T09:26:40.304Z,51.59
2023-05-19T09:27:40.250Z,53.60
2023-05-19T09:28:40.253Z,54.38
2023-05-19T09:29:40.240Z,52.19
2023-05-19T09:30:40.226Z,52.77
2023-05-19T09:31:40.241Z,53.67
2023-05-19T09:32:40.227Z,53.88
2023-05-19T09:33:42.184Z,51.76
2023-05-19T09:34:40.197Z,51.76
2023-05-19T09:35:40.202Z,51.06
2023-05-19T09:36:40.163Z,51.66
2023-05-19T09:37:40.159Z,53.58
2023-05-19T09:38:40.103Z,52.17
2023-05-19T09:39:40.116Z,53.07
2023-05-19T09:40:40.091Z,51.76
2023-05-19T09:41:40.098Z,51.73
2023-05-19T09:42:40.065Z,50.83
2023-05-19T09:43:40.083Z,50.63
2023-05-19T09:44:40.049Z,51.51
2023-05-19T09:45:40.098Z,50.40
2023-05-19T09:46:40.183Z,51.51
2023-05-19T09:47:40.086Z,50.91
2023-05-19T09:48:40.007Z,52.09
2023-05-19T09:49:40.023Z,51.06
2023-05-19T09:50:40.005Z,50.46
2023-05-19T09:51:39.987Z,49.95
2023-05-19T09:52:39.977Z,49.45
2023-05-19T09:53:39.972Z,50.53
2023-05-19T09:54:40.023Z,47.90
2023-05-19T09:55:39.994Z,47.09
2023-05-19T09:56:39.946Z,44.59
2023-05-19T09:57:39.918Z,44.79
2023-05-19T09:58:39.887Z,45.87
2023-05-19T09:59:39.919Z,44.62
2023-05-19T10:00:39.891Z,44.30
2023-05-19T10:01:39.934Z,42.07
2023-05-19T10:02:39.892Z,41.99
2023-05-19T10:03:39.862Z,42.18
2023-05-19T10:04:39.891Z,41.97
2023-05-19T10:05:40.010Z,41.77
2023-05-19T10:06:39.804Z,40.85
2023-05-19T10:07:39.819Z,41.03
2023-05-19T10:08:39.801Z,40.63
2023-05-19T10:09:39.798Z,39.41
2023-05-19T10:10:39.778Z,38.70
2023-05-19T10:11:39.786Z,39.69
2023-05-19T10:12:39.766Z,39.00
2023-05-19T10:13:39.751Z,39.48
2023-05-19T10:14:39.743Z,38.16
2023-05-19T10:15:53.669Z,38.26
2023-05-19T10:16:40.734Z,38.96
2023-05-19T10:17:39.737Z,38.96
2023-05-19T10:18:40.091Z,39.54
2023-05-19T10:19:39.695Z,40.44
2023-05-19T10:20:39.672Z,40.92
2023-05-19T10:21:39.671Z,40.95
2023-05-19T10:22:39.658Z,42.57
2023-05-19T10:23:39.659Z,42.60
2023-05-19T10:24:39.623Z,42.74
2023-05-19T10:25:39.620Z,43.08
2023-05-19T10:26:39.597Z,43.90
2023-05-19T10:27:39.593Z,45.12
2023-05-19T10:28:39.597Z,44.34
2023-05-19T10:29:39.599Z,44.79
2023-05-19T10:30:39.575Z,45.69
2023-05-19T10:31:39.568Z,46.49
2023-05-19T10:32:39.588Z,46.29
2023-05-19T10:33:39.525Z,44.89
2023-05-19T10:34:39.516Z,46.75
2023-05-19T10:35:39.522Z,45.42
2023-05-19T10:36:39.547Z,43.40
2023-05-19T10:37:39.492Z,42.97
2023-05-19T10:38:39.474Z,41.55
2023-05-19T10:39:39.465Z,42.46
2023-05-19T10:40:39.810Z,41.25
2023-05-19T10:41:39.446Z,41.97
2023-05-19T10:42:39.463Z,41.67
2023-05-19T10:43:39.414Z,42.72
2023-05-19T10:44:39.419Z,42.63
2023-05-19T10:45:39.422Z,43.36
2023-05-19T10:46:40.436Z,45.57
2023-05-19T10:47:39.395Z,45.77
2023-05-19T10:48:39.370Z,44.16
2023-05-19T10:49:39.372Z,45.14
2023-05-19T10:50:39.349Z,44.14
2023-05-19T10:51:39.340Z,44.42
2023-05-19T10:52:39.306Z,43.60
2023-05-19T10:53:39.319Z,43.60
2023-05-19T10:54:39.299Z,42.19
2023-05-19T10:55:39.313Z,44.30
2023-05-19T10:56:39.312Z,43.70
2023-05-19T10:57:39.433Z,42.21
2023-05-19T10:58:39.287Z,43.44
2023-05-19T10:59:39.267Z,41.67
2023-05-19T11:00:39.257Z,44.08
2023-05-19T11:01:39.305Z,43.90
2023-05-19T11:02:39.295Z,44.12
2023-05-19T11:03:39.299Z,44.73
2023-05-19T11:04:39.191Z,44.83
2023-05-19T11:05:39.188Z,43.70
2023-05-19T11:06:39.161Z,43.88
2023-05-19T11:07:39.259Z,43.34
2023-05-19T11:08:39.157Z,41.91
2023-05-19T11:09:40.596Z,42.99
2023-05-19T11:10:39.115Z,41.49
2023-05-19T11:11:39.130Z,41.49
2023-05-19T11:12:39.119Z,41.19
2023-05-19T11:13:39.106Z,41.53
2023-05-19T11:14:39.077Z,42.33
2023-05-19T11:15:39.096Z,43.54
2023-05-19T11:16:39.114Z,42.21
2023-05-19T11:17:39.125Z,40.21
2023-05-19T11:18:39.091Z,39.29
2023-05-19T11:19:39.029Z,39.37
2023-05-19T11:20:39.077Z,39.75
2023-05-19T11:21:39.053Z,39.83
2023-05-19T11:22:38.994Z,38.91
2023-05-19T11:23:39.051Z,37.99
2023-05-19T11:24:38.980Z,38.57
2023-05-19T11:25:38.977Z,37.27
2023-05-19T11:26:38.957Z,37.46
2023-05-19T11:27:38.964Z,37.26
2023-05-19T11:28:38.923Z,36.16
2023-05-19T11:29:38.938Z,36.68
2023-05-19T11:30:38.911Z,37.38
2023-05-19T11:31:38.951Z,37.27
2023-05-19T11:32:39.071Z,38.78
2023-05-19T11:33:38.884Z,39.01
2023-05-19T11:34:38.882Z,38.81
2023-05-19T11:35:39.145Z,38.75
2023-05-19T11:36:38.830Z,38.57
2023-05-19T11:37:38.846Z,39.47
2023-05-19T11:38:38.954Z,39.97
2023-05-19T11:39:38.834Z,41.46
2023-05-19T11:40:38.820Z,38.03
2023-05-19T11:41:38.817Z,38.53
2023-05-19T11:42:38.791Z,38.23
2023-05-19T11:43:38.790Z,37.25
2023-05-19T11:44:38.767Z,38.15
2023-05-19T11:45:38.764Z,36.93
2023-05-19T11:46:38.841Z,37.92
2023-05-19T11:47:50.683Z,37.31
2023-05-19T11:48:39.755Z,38.81
2023-05-19T11:49:38.710Z,37.33
2023-05-19T11:50:38.703Z,38.05
2023-05-19T11:51:38.713Z,38.63
2023-05-19T11:52:38.680Z,39.61
2023-05-19T11:53:38.702Z,39.72
2023-05-19T11:54:39.111Z,37.77
2023-05-19T11:55:38.674Z,37.46
2023-05-19T11:56:38.648Z,34.75
2023-05-19T11:57:38.632Z,34.43
2023-05-19T11:58:38.595Z,34.91
2023-05-19T11:59:38.615Z,34.71
2023-05-19T12:00:38.609Z,33.83
2023-05-19T12:01:38.595Z,35.42
2023-05-19T12:02:38.621Z,35.21
2023-05-19T12:03:38.926Z,34.58
2023-05-19T12:04:38.566Z,35.06
2023-05-19T12:05:41.968Z,34.76
2023-05-19T12:06:38.673Z,33.97
2023-05-19T12:07:38.529Z,33.07
2023-05-19T12:08:38.511Z,33.85
2023-05-19T12:09:38.603Z,32.56
2023-05-19T12:10:38.483Z,31.46
2023-05-19T12:11:38.457Z,31.96
2023-05-19T12:12:38.481Z,33.55
2023-05-19T12:13:38.462Z,31.46
2023-05-19T12:14:38.453Z,31.46
2023-05-19T12:15:38.413Z,32.95
2023-05-19T12:16:38.482Z,31.34
2023-05-19T12:17:38.423Z,31.86
2023-05-19T12:18:38.461Z,31.99
2023-05-19T12:19:38.395Z,32.62
2023-05-19T12:20:38.400Z,32.95
2023-05-19T12:21:38.359Z,33.26
2023-05-19T12:22:38.370Z,33.04
2023-05-19T12:23:38.328Z,32.71
2023-05-19T12:24:38.357Z,33.08
2023-05-19T12:25:38.537Z,32.57
2023-05-19T12:26:38.329Z,31.96
2023-05-19T12:27:38.294Z,32.56
2023-05-19T12:28:38.305Z,33.95
2023-05-19T12:29:38.281Z,34.45
2023-05-19T12:30:38.476Z,33.02
2023-05-19T12:31:38.369Z,32.62
2023-05-19T12:32:38.336Z,31.13
2023-05-19T12:33:38.247Z,31.63
2023-05-19T12:34:38.289Z,31.91
2023-05-19T12:35:38.218Z,32.21
2023-05-19T12:36:38.212Z,31.63
2023-05-19T12:37:38.199Z,32.64
2023-05-19T12:38:38.202Z,32.95
2023-05-19T12:39:38.170Z,33.28
2023-05-19T12:40:39.173Z,33.53
2023-05-19T12:41:38.158Z,35.06
2023-05-19T12:42:38.162Z,36.10
2023-05-19T12:43:38.149Z,36.21
2023-05-19T12:44:38.124Z,38.09
2023-05-19T12:45:38.173Z,37.59
2023-05-19T12:46:38.094Z,36.38
2023-05-19T12:47:38.094Z,35.74
2023-05-19T12:48:38.104Z,33.84
2023-05-19T12:49:38.071Z,32.93
2023-05-19T12:50:38.269Z,33.50
2023-05-19T12:51:38.060Z,32.27
2023-05-19T12:52:38.053Z,32.26
2023-05-19T12:53:38.025Z,31.15
2023-05-19T12:54:38.070Z,29.84
2023-05-19T12:55:38.015Z,30.32
2023-05-19T12:56:38.011Z,31.91
2023-05-19T12:57:37.990Z,32.12
2023-05-19T12:58:37.972Z,32.45
2023-05-19T12:59:39.001Z,32.26
2023-05-19T13:00:38.066Z,32.74
2023-05-19T13:01:37.939Z,32.54
2023-05-19T13:02:38.066Z,31.64
2023-05-19T13:03:37.977Z,31.43
2023-05-19T13:04:37.919Z,32.09
2023-05-19T13:05:37.976Z,31.02
2023-05-19T13:06:37.892Z,30.63
2023-05-19T13:07:37.901Z,30.38
2023-05-19T13:08:37.867Z,31.60
2023-05-19T13:09:37.858Z,32.82
2023-05-19T13:10:37.911Z,32.65
2023-05-19T13:11:38.131Z,34.08
2023-05-19T13:12:37.854Z,33.08
2023-05-19T13:13:37.815Z,33.08
2023-05-19T13:14:37.805Z,33.54
2023-05-19T13:15:37.831Z,32.63
2023-05-19T13:16:37.869Z,32.90
2023-05-19T13:17:37.801Z,32.42
2023-05-19T13:18:38.012Z,31.63
2023-05-19T13:19:37.907Z,33.13
2023-05-19T13:20:37.767Z,33.10
2023-05-19T13:21:37.734Z,33.07
2023-05-19T13:22:37.741Z,31.79
2023-05-19T13:23:37.716Z,31.51
2023-05-19T13:24:37.701Z,31.30
2023-05-19T13:25:37.701Z,32.42
2023-05-19T13:26:37.695Z,31.52
2023-05-19T13:27:37.652Z,32.09
2023-05-19T13:28:37.656Z,30.91
2023-05-19T13:29:37.670Z,30.48
2023-05-19T13:30:37.918Z,30.27
2023-05-19T13:31:37.674Z,31.34
2023-05-19T13:32:37.666Z,30.79
2023-05-19T13:33:37.595Z,31.60
2023-05-19T13:34:37.585Z,33.42
2023-05-19T13:35:38.115Z,33.45
2023-05-19T13:36:37.597Z,34.46
2023-05-19T13:37:37.566Z,33.53
2023-05-19T13:38:37.567Z,34.14
2023-05-19T13:39:37.559Z,34.96
2023-05-19T13:40:37.596Z,34.38
2023-05-19T13:41:37.516Z,34.98
2023-05-19T13:42:37.549Z,35.18
2023-05-19T13:43:37.537Z,35.03
2023-05-19T13:44:37.477Z,33.80
2023-05-19T13:45:37.468Z,34.06
2023-05-19T13:47:38.486Z,32.06
2023-05-19T13:48:37.440Z,32.27
2023-05-19T13:49:37.434Z,32.22
2023-05-19T13:50:37.444Z,33.91
2023-05-19T13:51:37.476Z,33.00
2023-05-19T13:52:37.407Z,32.02
2023-05-19T13:53:37.375Z,31.67
2023-05-19T13:54:37.389Z,32.08
2023-05-19T13:55:37.354Z,33.29
2023-05-19T13:56:37.379Z,33.91
2023-05-19T13:57:37.341Z,34.33